Time;durP1;ratioP1;P1;durP2;ratioP2;P2;SDS_P1;SDS_P2;PMS_P1;PMS_P2;Temp;Humidity;BMP_temperature;BMP_pressure;BME280_temperature;BME280_humidity;BME280_pressure;Samples;Min_cycle;Max_cycle;Signal;HPM_P1;HPM_P2
2021/10/27 00:00:31;;;;;;;15.57;9.82;;;;;;;9.55;nan;102139.38;5086144;28;20096;-59
2021/10/27 00:02:56;;;;;;;18.23;9.73;;;;;;;9.57;nan;102143.50;5087154;28;20363;-59
2021/10/27 00:05:22;;;;;;;17.65;9.25;;;;;;;9.57;nan;102137.31;5087552;28;20124;-59
2021/10/27 00:07:47;;;;;;;15.82;9.40;;;;;;;9.55;nan;102140.19;5086735;28;20354;-58
2021/10/27 00:10:13;;;;;;;15.20;9.30;;;;;;;9.52;nan;102137.13;5085925;28;20020;-59
2021/10/27 00:12:40;;;;;;;18.02;9.27;;;;;;;9.59;nan;102145.97;5084997;28;20032;-58
2021/10/27 00:15:09;;;;;;;15.27;9.68;;;;;;;9.58;nan;102141.63;5086780;28;20119;-59
2021/10/27 00:17:35;;;;;;;14.95;9.63;;;;;;;9.56;nan;102138.34;5086233;28;20040;-57
2021/10/27 00:20:01;;;;;;;15.10;9.30;;;;;;;9.60;nan;102134.22;5085502;28;20032;-59
2021/10/27 00:22:26;;;;;;;17.35;8.65;;;;;;;9.65;nan;102137.09;5084209;28;20042;-58
2021/10/27 00:24:52;;;;;;;15.13;8.75;;;;;;;9.55;nan;102134.03;5083082;28;20493;-58
2021/10/27 00:27:17;;;;;;;18.15;8.68;;;;;;;9.57;nan;102134.63;5087724;28;20405;-58
2021/10/27 00:29:43;;;;;;;16.38;9.23;;;;;;;9.58;nan;102130.94;5083055;28;20069;-58
2021/10/27 00:32:09;;;;;;;17.27;8.88;;;;;;;9.66;nan;102136.06;5081146;28;20040;-58
2021/10/27 00:34:35;;;;;;;16.92;9.38;;;;;;;9.58;nan;102133.59;5086766;28;20030;-59
2021/10/27 00:37:01;;;;;;;14.00;8.70;;;;;;;9.61;nan;102128.66;5083517;28;20024;-57
2021/10/27 00:39:27;;;;;;;18.88;10.02;;;;;;;9.60;nan;102126.19;5081240;28;20044;-56
2021/10/27 00:41:53;;;;;;;15.02;9.13;;;;;;;9.67;nan;102132.34;5081542;28;20500;-59
2021/10/27 00:44:23;;;;;;;14.93;9.23;;;;;;;9.66;nan;102142.22;5084896;28;20036;-58
2021/10/27 00:47:06;;;;;;;14.85;8.95;;;;;;;9.60;nan;102127.00;5083405;28;20490;-57
2021/10/27 00:49:34;;;;;;;15.75;7.80;;;;;;;9.62;nan;102129.47;5080929;28;20082;-56
2021/10/27 00:52:02;;;;;;;13.35;8.43;;;;;;;9.61;nan;102138.53;5085667;28;20024;-59
2021/10/27 00:54:29;;;;;;;17.08;7.93;;;;;;;9.61;nan;102127.84;5086175;28;20032;-59
2021/10/27 00:56:56;;;;;;;12.60;8.18;;;;;;;9.71;nan;102133.59;5084014;28;20016;-58
2021/10/27 00:59:23;;;;;;;14.90;8.32;;;;;;;9.67;nan;102143.06;5085763;28;20451;-59
2021/10/27 01:01:50;;;;;;;18.27;8.95;;;;;;;9.68;nan;102139.34;5085695;28;20027;-57
2021/10/27 01:04:16;;;;;;;13.50;8.50;;;;;;;9.68;nan;102139.34;5085844;28;20119;-59
2021/10/27 01:06:42;;;;;;;17.70;8.65;;;;;;;9.64;nan;102130.91;5086748;28;20059;-59
2021/10/27 01:09:08;;;;;;;12.95;7.25;;;;;;;9.69;nan;102130.28;5085876;28;20059;-59
2021/10/27 01:11:33;;;;;;;11.50;7.38;;;;;;;9.69;nan;102136.50;5086297;28;20035;-58
2021/10/27 01:13:59;;;;;;;12.95;8.32;;;;;;;9.68;nan;102131.31;5085334;28;20549;-58
2021/10/27 01:16:25;;;;;;;14.15;7.72;;;;;;;9.69;nan;102130.28;5084572;28;20460;-58
2021/10/27 01:18:53;;;;;;;12.95;8.10;;;;;;;9.66;nan;102120.81;5085960;28;20474;-58
2021/10/27 01:21:23;;;;;;;13.85;7.30;;;;;;;9.59;nan;102124.56;5086433;28;20020;-58
2021/10/27 01:23:48;;;;;;;9.95;6.85;;;;;;;9.64;nan;102125.56;5086959;28;20059;-58
2021/10/27 01:26:14;;;;;;;10.60;6.72;;;;;;;9.64;nan;102128.25;5090231;28;20677;-58
2021/10/27 01:28:41;;;;;;;13.38;7.60;;;;;;;9.64;nan;102130.91;5086000;28;20039;-59
2021/10/27 01:31:08;;;;;;;8.45;5.80;;;;;;;9.60;nan;102127.00;5089980;28;20110;-60
2021/10/27 01:33:34;;;;;;;11.10;7.15;;;;;;;9.65;nan;102129.06;5090609;28;20032;-57
2021/10/27 01:36:00;;;;;;;14.05;7.45;;;;;;;9.63;nan;102123.09;5089881;28;20055;-59
2021/10/27 01:38:25;;;;;;;10.20;6.75;;;;;;;9.61;nan;102117.13;5089017;28;20490;-60
2021/10/27 01:40:54;;;;;;;14.93;7.07;;;;;;;9.60;nan;102115.50;5089296;28;20289;-57
2021/10/27 01:43:19;;;;;;;13.88;6.85;;;;;;;9.60;nan;102118.16;5090275;28;20032;-57
2021/10/27 01:45:45;;;;;;;11.00;6.53;;;;;;;9.64;nan;102122.06;5089709;28;20032;-57
2021/10/27 01:48:11;;;;;;;8.77;5.88;;;;;;;9.65;nan;102123.72;5089063;28;20336;-58
2021/10/27 01:50:36;;;;;;;10.65;6.05;;;;;;;9.71;nan;102120.22;5089718;28;20016;-57
2021/10/27 01:53:02;;;;;;;10.00;5.60;;;;;;;9.76;nan;102115.06;5089946;28;20499;-57
2021/10/27 01:55:28;;;;;;;9.55;5.25;;;;;;;9.78;nan;102122.88;5089988;28;20111;-57
2021/10/27 01:57:54;;;;;;;10.35;6.15;;;;;;;9.74;nan;102117.13;5089668;28;20031;-57
2021/10/27 02:00:20;;;;;;;9.07;5.50;;;;;;;9.69;nan;102109.72;5089057;28;20080;-57
2021/10/27 02:02:46;;;;;;;13.40;5.43;;;;;;;9.68;nan;102116.06;5088466;28;20024;-57
2021/10/27 02:05:12;;;;;;;10.05;6.32;;;;;;;9.66;nan;102114.66;5089366;28;20478;-57
2021/10/27 02:07:39;;;;;;;11.35;5.47;;;;;;;9.60;nan;102108.28;5086072;28;20027;-57
2021/10/27 02:10:07;;;;;;;9.18;5.85;;;;;;;9.60;nan;102104.78;5087622;28;20050;-57
2021/10/27 02:12:33;;;;;;;10.70;5.57;;;;;;;9.60;nan;102099.44;5089598;28;20027;-57
2021/10/27 02:14:58;;;;;;;11.88;6.80;;;;;;;9.59;nan;102093.25;5088894;28;20039;-56
2021/10/27 02:17:24;;;;;;;10.43;5.65;;;;;;;9.55;nan;102097.41;5088914;28;20536;-57
2021/10/27 02:19:49;;;;;;;7.40;5.60;;;;;;;9.51;nan;102100.66;5087155;28;20114;-57
2021/10/27 02:22:15;;;;;;;8.50;5.82;;;;;;;9.53;nan;102094.09;5088839;28;20024;-57
2021/10/27 02:24:40;;;;;;;15.10;5.82;;;;;;;9.50;nan;102094.50;5085385;28;20123;-57
2021/10/27 02:27:06;;;;;;;10.50;6.00;;;;;;;9.50;nan;102101.69;5087928;28;20097;-57
2021/10/27 02:29:32;;;;;;;10.57;5.85;;;;;;;9.51;nan;102104.16;5088383;28;20478;-57
2021/10/27 02:31:58;;;;;;;10.48;6.10;;;;;;;9.56;nan;102109.75;5088771;28;20474;-57
2021/10/27 02:34:24;;;;;;;7.82;5.80;;;;;;;9.59;nan;102114.66;5088612;28;20047;-57
2021/10/27 02:36:49;;;;;;;6.82;4.90;;;;;;;9.58;nan;102114.88;5086482;28;20028;-56
2021/10/27 02:39:15;;;;;;;6.88;5.53;;;;;;;9.64;nan;102120.22;5086590;28;20517;-57
2021/10/27 02:41:40;;;;;;;10.48;5.05;;;;;;;9.64;nan;102122.06;5085518;28;20016;-57
2021/10/27 02:44:06;;;;;;;9.50;5.32;;;;;;;9.71;nan;102125.56;5088565;28;20020;-57
2021/10/27 02:46:31;;;;;;;7.65;4.80;;;;;;;9.75;nan;102125.97;5088290;28;20115;-57
2021/10/27 02:48:57;;;;;;;8.70;5.47;;;;;;;9.72;nan;102121.84;5088059;28;20501;-57
2021/10/27 02:51:22;;;;;;;8.50;5.07;;;;;;;9.74;nan;102122.47;5087493;28;20028;-57
2021/10/27 02:53:48;;;;;;;9.20;5.10;;;;;;;9.77;nan;102116.69;5087512;28;20389;-57
2021/10/27 02:56:14;;;;;;;9.02;5.28;;;;;;;9.80;nan;102118.94;5088342;28;20032;-57
2021/10/27 02:58:40;;;;;;;8.30;4.90;;;;;;;9.79;nan;102119.16;5088563;28;20165;-57
2021/10/27 03:01:05;;;;;;;8.38;5.05;;;;;;;9.79;nan;102122.66;5087588;28;20078;-57
2021/10/27 03:03:31;;;;;;;8.55;5.40;;;;;;;9.79;nan;102119.16;5086607;28;20036;-57
2021/10/27 03:05:57;;;;;;;9.80;4.75;;;;;;;9.73;nan;102120.81;5088217;28;20024;-57
2021/10/27 03:08:22;;;;;;;11.20;5.28;;;;;;;9.72;nan;102124.53;5087791;28;20020;-57
2021/10/27 03:10:48;;;;;;;9.43;4.90;;;;;;;9.73;nan;102123.50;5087046;28;20021;-58
2021/10/27 03:13:13;;;;;;;7.90;4.65;;;;;;;9.67;nan;102119.78;5069596;28;20042;-57
2021/10/27 03:15:39;;;;;;;11.38;5.20;;;;;;;9.70;nan;102121.25;5087761;28;20085;-57
2021/10/27 03:18:04;;;;;;;8.25;4.70;;;;;;;9.70;nan;102121.25;5086154;28;20032;-58
2021/10/27 03:20:30;;;;;;;8.60;4.85;;;;;;;9.78;nan;102123.69;5079187;28;20499;-58
2021/10/27 03:22:55;;;;;;;10.40;5.40;;;;;;;9.78;nan;102128.22;5087366;28;20016;-58
2021/10/27 03:25:21;;;;;;;9.82;5.00;;;;;;;9.85;nan;102129.03;5087683;28;20153;-58
2021/10/27 03:27:46;;;;;;;11.02;5.50;;;;;;;9.86;nan;102130.66;5086666;28;20027;-57
2021/10/27 03:30:12;;;;;;;9.65;5.68;;;;;;;9.85;nan;102123.66;5084712;28;20032;-57
2021/10/27 03:32:37;;;;;;;10.48;4.90;;;;;;;9.80;nan;102132.34;5085254;28;20075;-58
2021/10/27 03:35:03;;;;;;;8.63;5.15;;;;;;;9.78;nan;102129.03;5086975;28;20027;-57
2021/10/27 03:37:29;;;;;;;7.18;5.55;;;;;;;9.80;nan;102120.81;5085039;28;20063;-58
2021/10/27 03:39:55;;;;;;;9.50;4.97;;;;;;;9.85;nan;102127.16;5084280;28;20139;-57
2021/10/27 03:42:21;;;;;;;8.35;4.93;;;;;;;9.85;nan;102119.13;5086867;28;20489;-58
2021/10/27 03:44:46;;;;;;;9.65;5.05;;;;;;;9.87;nan;102122.41;5085532;28;20464;-57
2021/10/27 03:47:12;;;;;;;10.30;5.10;;;;;;;9.86;nan;102126.13;5085520;28;20142;-58
2021/10/27 03:49:37;;;;;;;8.38;4.43;;;;;;;9.82;nan;102119.56;5084558;28;20154;-58
2021/10/27 03:52:03;;;;;;;12.88;4.80;;;;;;;9.85;nan;102121.81;5084754;28;20033;-58
2021/10/27 03:54:30;;;;;;;7.93;4.97;;;;;;;9.83;nan;102123.06;5083823;28;20035;-57
2021/10/27 03:56:55;;;;;;;8.52;4.95;;;;;;;9.78;nan;102121.00;5082951;28;20229;-58
2021/10/27 03:59:21;;;;;;;9.32;4.55;;;;;;;9.82;nan;102124.91;5085140;28;20035;-57
2021/10/27 04:01:46;;;;;;;8.90;4.50;;;;;;;9.85;nan;102119.13;5086341;28;20024;-57
2021/10/27 04:04:12;;;;;;;8.15;4.75;;;;;;;9.92;nan;102119.13;5084895;28;20032;-58
2021/10/27 04:06:37;;;;;;;6.75;4.78;;;;;;;9.90;nan;102119.34;5085209;28;20066;-56
2021/10/27 04:09:03;;;;;;;10.65;5.38;;;;;;;9.78;nan;102123.69;5086298;28;20085;-58
2021/10/27 04:11:29;;;;;;;8.13;4.03;;;;;;;9.90;nan;102116.66;5083034;28;20034;-58
2021/10/27 04:13:54;;;;;;;8.15;4.88;;;;;;;9.91;nan;102115.63;5085439;28;20020;-57
2021/10/27 04:16:20;;;;;;;8.75;4.63;;;;;;;9.96;nan;102118.50;5087776;28;20410;-58
2021/10/27 04:18:46;;;;;;;10.80;5.28;;;;;;;9.96;nan;102120.34;5084388;28;20032;-58
2021/10/27 04:21:11;;;;;;;9.57;4.95;;;;;;;9.95;nan;102122.22;5083495;28;20226;-57
2021/10/27 04:23:37;;;;;;;9.30;5.00;;;;;;;9.94;nan;102122.44;5087023;28;20466;-58
2021/10/27 04:26:02;;;;;;;8.88;4.53;;;;;;;9.96;nan;102120.34;5085841;28;20035;-57
2021/10/27 04:28:28;;;;;;;8.25;5.10;;;;;;;9.98;nan;102119.09;5083994;28;20036;-57
2021/10/27 04:30:53;;;;;;;7.15;4.72;;;;;;;10.04;nan;102127.31;5083772;28;20024;-58
2021/10/27 04:33:21;;;;;;;9.35;5.07;;;;;;;10.06;nan;102120.75;5085930;28;20039;-58
2021/10/27 04:35:47;;;;;;;13.38;5.28;;;;;;;10.07;nan;102116.22;5086544;28;20024;-57
2021/10/27 04:38:14;;;;;;;8.38;5.13;;;;;;;9.98;nan;102120.97;5083371;28;20062;-57
2021/10/27 04:40:44;;;;;;;7.88;4.72;;;;;;;9.87;nan;102117.06;5083479;28;20032;-57
2021/10/27 04:43:10;;;;;;;8.20;4.57;;;;;;;9.80;nan;102116.28;5083291;28;20409;-58
2021/10/27 04:45:36;;;;;;;11.00;4.80;;;;;;;9.84;nan;102119.34;5083588;28;20036;-58
2021/10/27 04:48:02;;;;;;;8.63;4.25;;;;;;;9.90;nan;102124.69;5083791;28;20496;-57
2021/10/27 04:50:27;;;;;;;5.45;4.70;;;;;;;9.92;nan;102125.31;5086155;28;20031;-57
2021/10/27 04:52:53;;;;;;;7.03;4.25;;;;;;;9.94;nan;102122.44;5085179;28;20027;-58
2021/10/27 04:55:18;;;;;;;12.68;4.50;;;;;;;9.97;nan;102122.81;5085652;28;20118;-58
2021/10/27 04:57:44;;;;;;;8.52;4.75;;;;;;;9.94;nan;102125.94;5084279;28;20486;-58
2021/10/27 05:00:10;;;;;;;11.98;4.95;;;;;;;10.00;nan;102122.41;5087266;28;20606;-58
2021/10/27 05:02:36;;;;;;;6.93;3.97;;;;;;;10.02;nan;102124.03;5086988;28;20034;-58
2021/10/27 05:05:02;;;;;;;8.80;4.35;;;;;;;10.05;nan;102128.97;5089002;28;20024;-58
2021/10/27 05:07:27;;;;;;;6.18;3.97;;;;;;;10.08;nan;102123.22;5088668;28;20081;-58
2021/10/27 05:09:53;;;;;;;8.85;4.50;;;;;;;10.05;nan;102124.44;5087829;28;20012;-58
2021/10/27 05:12:19;;;;;;;7.55;4.22;;;;;;;10.10;nan;102121.16;5089733;28;20638;-58
2021/10/27 05:14:44;;;;;;;9.23;4.43;;;;;;;10.16;nan;102121.09;5089856;28;20032;-57
2021/10/27 05:17:11;;;;;;;7.72;4.07;;;;;;;10.18;nan;102118.22;5085798;28;20450;-57
2021/10/27 05:19:42;;;;;;;8.68;4.45;;;;;;;10.17;nan;102117.41;5067062;28;20059;-58
2021/10/27 05:22:08;;;;;;;10.55;3.97;;;;;;;10.16;nan;102112.25;5086368;28;20035;-57
2021/10/27 05:24:34;;;;;;;7.25;4.30;;;;;;;10.18;nan;102108.31;5089335;28;20039;-58
2021/10/27 05:27:00;;;;;;;6.82;3.67;;;;;;;10.16;nan;102110.41;5088623;28;20401;-58
2021/10/27 05:29:26;;;;;;;6.43;3.67;;;;;;;10.17;nan;102116.56;5090130;28;20059;-57
2021/10/27 05:31:52;;;;;;;10.35;4.32;;;;;;;10.26;nan;102110.00;5089919;28;20503;-58
2021/10/27 05:34:17;;;;;;;7.65;3.95;;;;;;;10.26;nan;102113.50;5087235;28;20324;-58
2021/10/27 05:36:44;;;;;;;8.65;3.72;;;;;;;10.29;nan;102120.28;5089022;28;20114;-58
2021/10/27 05:39:13;;;;;;;7.07;4.00;;;;;;;10.34;nan;102120.44;5087079;28;20035;-58
2021/10/27 05:41:49;;;;;;;6.22;3.50;;;;;;;10.29;nan;102120.28;5090166;28;20026;-58
2021/10/27 05:44:17;;;;;;;9.77;3.92;;;;;;;10.27;nan;102127.72;5090014;28;20390;-58
2021/10/27 05:46:44;;;;;;;6.57;3.72;;;;;;;10.27;nan;102125.03;5089411;28;20028;-58
2021/10/27 05:52:06;;;;;;;5.95;3.28;;;;;;;10.35;nan;102119.41;5086794;28;20168;-58
2021/10/27 05:57:15;;;;;;;7.45;3.97;;;;;;;10.39;nan;102130.53;5089441;28;20092;-58
2021/10/27 05:59:41;;;;;;;9.95;3.90;;;;;;;10.39;nan;102134.03;5088488;28;20415;-58
2021/10/27 06:02:06;;;;;;;7.10;3.80;;;;;;;10.36;nan;102136.31;5089963;28;20027;-58
2021/10/27 06:04:33;;;;;;;8.27;3.58;;;;;;;10.44;nan;102126.19;5091201;28;20024;-57
2021/10/27 06:06:58;;;;;;;7.13;3.67;;;;;;;10.44;nan;102136.91;5083412;28;20389;-57
2021/10/27 06:09:24;;;;;;;5.00;3.58;;;;;;;10.45;nan;102132.38;5088300;28;20039;-57
2021/10/27 06:11:50;;;;;;;8.07;4.18;;;;;;;10.47;nan;102131.13;5086309;28;20035;-57
2021/10/27 06:14:16;;;;;;;7.63;3.40;;;;;;;10.47;nan;102136.47;5086878;28;20287;-58
2021/10/27 06:16:42;;;;;;;8.57;3.58;;;;;;;10.52;nan;102133.97;5089014;28;20063;-57
2021/10/27 06:19:07;;;;;;;10.43;3.88;;;;;;;10.51;nan;102148.41;5089948;28;20051;-57
2021/10/27 06:21:33;;;;;;;12.57;3.97;;;;;;;10.50;nan;102145.94;5088501;28;20049;-57
2021/10/27 06:24:00;;;;;;;9.38;3.65;;;;;;;10.53;nan;102140.16;5088223;28;20064;-57
2021/10/27 06:26:26;;;;;;;9.07;4.25;;;;;;;10.57;nan;102144.84;5086618;28;20032;-57
2021/10/27 06:29:10;;;;;;;6.97;4.18;;;;;;;10.65;nan;102157.22;5088247;28;20028;-57
2021/10/27 06:31:50;;;;;;;5.65;3.85;;;;;;;10.59;nan;102158.91;5086791;28;20502;-57
2021/10/27 06:47:53;;;;;;;5.05;3.63;;;;;;;10.79;nan;102168.69;4996694;28;20037;-57
2021/10/27 06:50:19;;;;;;;9.98;3.55;;;;;;;10.77;nan;102176.09;5069231;28;20040;-57
2021/10/27 06:52:46;;;;;;;6.22;3.45;;;;;;;10.76;nan;102172.59;5085642;28;20058;-58
2021/10/27 06:55:11;;;;;;;7.75;3.95;;;;;;;10.83;nan;102169.91;5085562;28;20379;-57
2021/10/27 06:57:37;;;;;;;4.88;3.53;;;;;;;10.86;nan;102172.97;5086392;28;20027;-57
2021/10/27 07:00:16;;;;;;;6.15;3.85;;;;;;;10.91;nan;102180.38;5079473;28;20550;-57
2021/10/27 07:16:22;;;;;;;4.68;3.50;;;;;;;11.07;nan;102195.94;5088277;28;20662;-58
2021/10/27 07:18:48;;;;;;;7.18;3.80;;;;;;;11.12;nan;102198.78;5087080;28;20016;-57
2021/10/27 07:21:13;;;;;;;10.27;4.10;;;;;;;11.14;nan;102210.16;5087659;28;20122;-57
2021/10/27 07:23:40;;;;;;;8.88;5.05;;;;;;;11.12;nan;102206.84;5087411;28;20245;-56
2021/10/27 07:26:06;;;;;;;9.65;4.28;;;;;;;11.08;nan;102202.94;5089268;28;20084;-57
2021/10/27 07:28:32;;;;;;;7.15;4.85;;;;;;;11.15;nan;102197.56;5089797;28;20028;-58
2021/10/27 07:30:59;;;;;;;8.23;4.13;;;;;;;11.17;nan;102199.00;5089193;28;20024;-57
2021/10/27 07:33:27;;;;;;;11.05;4.53;;;;;;;11.23;nan;102196.47;5089613;28;20032;-58
2021/10/27 07:36:05;;;;;;;6.78;5.10;;;;;;;11.25;nan;102199.75;5088525;28;20360;-58
2021/10/27 07:41:14;;;;;;;12.88;4.93;;;;;;;11.37;nan;102201.53;5089477;28;20031;-57
2021/10/27 07:43:42;;;;;;;6.00;3.80;;;;;;;11.41;nan;102197.38;5089386;28;20027;-57
2021/10/27 07:46:07;;;;;;;7.18;3.35;;;;;;;11.45;nan;102201.25;5088839;28;20043;-57
2021/10/27 07:48:33;;;;;;;8.18;4.25;;;;;;;11.46;nan;102204.75;5094421;28;20024;-58
2021/10/27 07:50:59;;;;;;;5.22;3.50;;;;;;;11.55;nan;102206.13;5069431;28;20059;-57
2021/10/27 07:53:27;;;;;;;8.88;4.25;;;;;;;11.63;nan;102216.59;5095090;28;20508;-57
2021/10/27 07:55:55;;;;;;;8.13;3.55;;;;;;;11.61;nan;102216.00;5088083;28;20028;-57
2021/10/27 07:58:23;;;;;;;8.25;3.65;;;;;;;11.76;nan;102221.84;5088737;28;20032;-57
2021/10/27 08:00:53;;;;;;;9.43;3.72;;;;;;;11.72;nan;102217.16;5086868;28;20035;-57
2021/10/27 08:03:19;;;;;;;8.45;4.00;;;;;;;11.76;nan;102221.84;5064557;28;20056;-57
2021/10/27 08:05:45;;;;;;;7.70;3.70;;;;;;;11.78;nan;102224.31;5087499;28;20058;-57
2021/10/27 08:08:13;;;;;;;4.30;3.55;;;;;;;11.78;nan;102225.16;5070077;28;20031;-57
2021/10/27 08:10:39;;;;;;;7.20;3.83;;;;;;;11.88;nan;102226.56;5087827;28;20031;-58
2021/10/27 08:13:06;;;;;;;6.72;4.22;;;;;;;11.94;nan;102225.66;5088236;28;20085;-57
2021/10/27 08:15:32;;;;;;;8.38;3.80;;;;;;;12.00;nan;102230.13;5086183;28;20032;-57
2021/10/27 08:17:58;;;;;;;4.88;3.85;;;;;;;12.07;nan;102230.91;5086435;28;20051;-57
2021/10/27 08:20:26;;;;;;;4.57;3.83;;;;;;;12.01;nan;102235.28;5087970;28;20255;-57
2021/10/27 08:22:57;;;;;;;6.72;3.97;;;;;;;12.10;nan;102225.09;5088285;28;20024;-57
2021/10/27 08:25:36;;;;;;;8.85;3.90;;;;;;;12.18;nan;102221.28;5088560;28;20032;-56
2021/10/27 08:28:06;;;;;;;8.48;4.28;;;;;;;12.19;nan;102228.28;5087554;28;20310;-57
2021/10/27 08:35:57;;;;;;;8.48;4.63;;;;;;;12.58;nan;102210.94;5088131;28;20035;-57
2021/10/27 08:38:23;;;;;;;7.43;4.07;;;;;;;12.71;nan;102214.25;5088639;28;20039;-57
2021/10/27 08:40:50;;;;;;;9.00;4.00;;;;;;;12.89;nan;102216.09;5086755;28;20031;-57
2021/10/27 08:43:15;;;;;;;9.00;3.90;;;;;;;13.04;nan;102214.84;5082806;28;20020;-57
2021/10/27 08:45:43;;;;;;;10.57;3.58;;;;;;;13.13;nan;102211.63;5087738;28;20036;-57
2021/10/27 08:48:11;;;;;;;7.38;4.10;;;;;;;13.41;nan;102211.00;5088519;28;20533;-57
2021/10/27 08:50:37;;;;;;;8.50;3.22;;;;;;;13.54;nan;102216.19;5088254;28;20107;-56
2021/10/27 08:53:03;;;;;;;9.52;4.10;;;;;;;13.70;nan;102220.09;5088023;28;21485;-56
2021/10/27 08:55:29;;;;;;;6.18;3.75;;;;;;;13.65;nan;102211.88;5088123;28;20197;-57
2021/10/27 08:57:56;;;;;;;8.25;3.80;;;;;;;13.91;nan;102216.81;5085339;28;20501;-57
2021/10/27 09:16:29;;;;;;;5.20;3.38;;;;;;;14.06;nan;102212.81;5082206;28;20112;-57
2021/10/27 09:47:05;;;;;;;6.25;3.35;;;;;;;14.73;nan;102232.09;5088751;28;20524;-57
2021/10/27 10:06:15;;;;;;;6.35;3.33;;;;;;;15.38;nan;102235.16;5091309;28;20047;-58
2021/10/27 10:08:45;;;;;;;7.10;3.10;;;;;;;15.46;nan;102250.16;5091163;28;20051;-57
2021/10/27 10:11:12;;;;;;;5.95;2.80;;;;;;;15.66;nan;102242.44;5090833;28;20750;-57
2021/10/27 10:13:43;;;;;;;6.50;3.47;;;;;;;15.59;nan;102247.16;5089449;28;20031;-57
2021/10/27 10:16:08;;;;;;;3.72;2.30;;;;;;;15.62;nan;102248.59;5089129;28;20031;-57
2021/10/27 10:18:38;;;;;;;8.60;2.80;;;;;;;15.52;nan;102243.78;5090928;28;20497;-57
2021/10/27 10:21:04;;;;;;;6.65;2.85;;;;;;;15.67;nan;102249.47;5071775;28;20055;-57
2021/10/27 10:23:30;;;;;;;8.73;3.33;;;;;;;15.74;nan;102249.31;5089704;28;20028;-57
2021/10/27 10:26:06;;;;;;;4.53;2.83;;;;;;;16.06;nan;102254.13;5089835;28;20040;-57
2021/10/27 10:28:43;;;;;;;4.80;2.50;;;;;;;16.16;nan;102248.88;5089507;28;20486;-57
2021/10/27 10:31:09;;;;;;;3.97;2.80;;;;;;;16.31;nan;102258.00;5090513;28;20031;-57
2021/10/27 10:33:42;;;;;;;5.45;2.97;;;;;;;16.19;nan;102261.88;5074670;28;20386;-57
2021/10/27 10:36:33;;;;;;;4.95;3.15;;;;;;;16.02;nan;102259.22;5088565;28;20019;-57
2021/10/27 10:39:45;;;;;;;6.18;3.22;;;;;;;16.20;nan;102258.94;5085193;28;20136;-57
2021/10/27 11:40:49;;;;;;;3.42;2.53;;;;;;;15.88;nan;102253.31;5085087;28;20118;-56
2021/10/27 11:43:31;;;;;;;2.40;2.03;;;;;;;16.01;nan;102247.56;5085052;28;20528;-55
2021/10/27 11:46:10;;;;;;;3.42;2.25;;;;;;;15.89;nan;102238.72;5085099;28;20431;-57
2021/10/27 11:51:10;;;;;;;9.32;3.20;;;;;;;15.97;nan;102230.19;5084694;28;20083;-57
2021/10/27 11:53:36;;;;;;;6.45;2.60;;;;;;;15.92;nan;102240.13;5086127;28;20028;-57
2021/10/27 11:56:18;;;;;;;7.30;2.47;;;;;;;15.97;nan;102235.59;5085367;28;20034;-57
2021/10/27 11:58:49;;;;;;;5.40;2.55;;;;;;;15.99;nan;102232.69;5085202;28;20070;-57
2021/10/27 12:01:30;;;;;;;6.68;2.40;;;;;;;15.99;nan;102228.09;5083737;28;20477;-57
2021/10/27 12:04:06;;;;;;;3.42;2.13;;;;;;;15.97;nan;102218.56;5085657;28;20039;-57
2021/10/27 12:12:31;;;;;;;4.20;2.50;;;;;;;15.75;nan;102225.78;5082400;28;20061;-57
2021/10/27 12:19:26;;;;;;;5.43;2.90;;;;;;;15.61;nan;102236.94;5084729;28;20088;-57
2021/10/27 12:22:03;;;;;;;7.60;3.20;;;;;;;15.57;nan;102238.47;5086016;28;20122;-57
2021/10/27 12:24:33;;;;;;;6.90;3.25;;;;;;;15.42;nan;102228.22;5086462;28;20038;-56
2021/10/27 12:29:29;;;;;;;4.60;2.58;;;;;;;15.31;nan;102221.00;5083506;28;20019;-57
2021/10/27 12:32:10;;;;;;;6.72;3.13;;;;;;;15.25;nan;102215.75;5080276;28;20042;-57
2021/10/27 12:34:51;;;;;;;3.42;2.33;;;;;;;15.24;nan;102206.00;5088341;28;20139;-57
2021/10/27 12:37:26;;;;;;;4.25;2.75;;;;;;;15.03;nan;102213.75;5078998;28;20020;-54
2021/10/27 12:39:52;;;;;;;;;;;;;;;14.92;nan;102213.81;5083408;28;20028;-57
2021/10/27 12:42:17;;;;;;;4.78;2.67;;;;;;;14.85;nan;102222.03;5065273;28;19911;-57
2021/10/27 12:44:52;;;;;;;3.38;2.55;;;;;;;14.78;nan;102222.19;5084305;28;20028;-57
2021/10/27 12:47:22;;;;;;;4.80;2.45;;;;;;;14.84;nan;102227.69;5080068;28;20031;-57
2021/10/27 12:49:49;;;;;;;4.15;2.50;;;;;;;14.70;nan;102230.66;5083168;28;20143;-56
2021/10/27 12:52:32;;;;;;;4.97;2.85;;;;;;;14.65;nan;102233.25;5085219;28;20036;-56
2021/10/27 12:55:43;;;;;;;3.85;2.25;;;;;;;14.63;nan;102224.59;5085483;28;20035;-56
2021/10/27 12:58:17;;;;;;;4.20;2.50;;;;;;;14.65;nan;102217.06;5064766;28;20043;-57
2021/10/27 13:00:54;;;;;;;6.78;2.42;;;;;;;14.64;nan;102220.81;5083105;28;20034;-56
2021/10/27 13:09:14;;;;;;;4.00;2.28;;;;;;;14.68;nan;102208.50;5084962;28;20493;-57
2021/10/27 13:30:12;;;;;;;3.20;2.47;;;;;;;14.50;nan;102227.53;5088433;28;20467;-56
2021/10/27 13:32:56;;;;;;;5.07;2.65;;;;;;;14.41;nan;102219.00;5069967;28;20024;-57
2021/10/27 13:35:22;;;;;;;7.95;3.30;;;;;;;14.32;nan;102211.50;5091304;28;20028;-57
2021/10/27 13:37:49;;;;;;;6.75;2.08;;;;;;;14.32;nan;102215.00;5088378;28;20028;-57
2021/10/27 13:40:15;;;;;;;4.22;2.50;;;;;;;14.34;nan;102218.28;5089137;28;20398;-57
2021/10/27 13:42:54;;;;;;;5.20;2.22;;;;;;;14.35;nan;102219.09;5088290;28;20024;-59
2021/10/27 14:15:16;;;;;;;6.53;3.00;;;;;;;14.01;nan;102237.78;5022833;28;20035;-55
2021/10/27 14:39:31;;;;;;;4.03;3.22;;;;;;;14.05;nan;102243.53;5086620;28;20031;-58
2021/10/27 15:20:18;;;;;;;3.90;3.33;;;;;;;14.08;nan;102243.06;5078494;28;20039;-56
2021/10/27 15:28:04;;;;;;;7.47;2.63;;;;;;;14.05;nan;102251.63;5080352;28;20028;-58
2021/10/27 15:51:08;;;;;;;3.75;2.63;;;;;;;13.86;nan;102250.91;5082024;28;20410;-55
2021/10/27 15:53:35;;;;;;;6.95;2.70;;;;;;;13.81;nan;102253.44;5085062;28;20106;-56
2021/10/27 15:56:00;;;;;;;7.18;2.72;;;;;;;13.81;nan;102259.66;5085946;28;20039;-56
2021/10/27 15:58:26;;;;;;;6.63;2.78;;;;;;;13.81;nan;102261.53;5085002;28;20028;-58
2021/10/27 16:00:51;;;;;;;5.45;2.85;;;;;;;13.84;nan;102263.78;5082167;28;20028;-58
2021/10/27 16:03:17;;;;;;;7.80;2.95;;;;;;;13.82;nan;102260.47;5079271;28;20062;-56
2021/10/27 16:05:45;;;;;;;5.50;3.20;;;;;;;13.82;nan;102268.56;5084099;28;20039;-56
2021/10/27 16:08:13;;;;;;;3.95;2.45;;;;;;;13.81;nan;102259.66;5084498;28;20083;-56
2021/10/27 16:10:39;;;;;;;5.60;2.85;;;;;;;13.77;nan;102273.84;5081780;28;20024;-56
2021/10/27 16:13:06;;;;;;;5.03;2.42;;;;;;;13.79;nan;102266.34;5062919;28;20035;-54
2021/10/27 16:15:51;;;;;;;4.78;2.95;;;;;;;13.81;nan;102264.22;5081351;28;20047;-58
2021/10/27 16:18:18;;;;;;;5.93;2.47;;;;;;;13.74;nan;102258.97;5084604;28;20054;-58
2021/10/27 16:20:45;;;;;;;4.30;2.90;;;;;;;13.75;nan;102267.84;5079924;28;20093;-59
2021/10/27 16:23:12;;;;;;;5.72;2.72;;;;;;;13.77;nan;102261.19;5081540;28;20039;-58
2021/10/27 16:25:38;;;;;;;5.13;2.80;;;;;;;13.75;nan;102254.41;5082999;28;20019;-58
2021/10/27 16:28:05;;;;;;;5.78;2.60;;;;;;;13.72;nan;102254.88;5059590;28;20032;-58
2021/10/27 16:30:31;;;;;;;4.25;2.92;;;;;;;13.68;nan;102246.44;5081627;28;20020;-57
2021/10/27 16:32:57;;;;;;;4.78;3.08;;;;;;;13.58;nan;102252.38;5081679;28;20040;-55
2021/10/27 16:35:23;;;;;;;6.57;2.78;;;;;;;13.58;nan;102249.69;5084664;28;20024;-58
2021/10/27 16:37:49;;;;;;;5.00;2.90;;;;;;;13.56;nan;102249.09;5080160;28;20030;-58
2021/10/27 16:40:15;;;;;;;7.63;3.08;;;;;;;13.60;nan;102249.44;5083778;28;20077;-57
2021/10/27 16:42:41;;;;;;;4.03;3.00;;;;;;;13.59;nan;102264.78;5081943;28;20421;-60
2021/10/27 16:45:11;;;;;;;8.43;3.40;;;;;;;13.60;nan;102260.22;5082039;28;20473;-55
2021/10/27 16:47:37;;;;;;;4.60;2.88;;;;;;;13.59;nan;102266.66;5083789;28;20235;-58
2021/10/27 16:50:05;;;;;;;10.25;3.10;;;;;;;13.63;nan;102261.63;5077333;28;20036;-57
2021/10/27 16:52:31;;;;;;;7.05;3.05;;;;;;;13.58;nan;102270.41;5082030;28;20123;-57
2021/10/27 16:54:57;;;;;;;4.88;3.40;;;;;;;13.58;nan;102273.09;5086329;28;20032;-57
2021/10/27 16:57:24;;;;;;;4.60;2.78;;;;;;;13.54;nan;102275.44;5090337;28;20055;-57
2021/10/27 16:59:50;;;;;;;5.97;3.55;;;;;;;13.51;nan;102270.50;5088097;28;20359;-57
2021/10/27 17:02:16;;;;;;;5.75;3.15;;;;;;;13.55;nan;102265.47;5088228;28;20059;-57